Aérodrome :
LOGIN :

S'inscrire | Disclaimer

   EN    FR    IT 

 










Légende :    VFR   VFR Marginal   IFR   IFR Intensif   IFR Très Intensif
Visi : 
Plafond : 
>= 8 km
>= 3000ft
5 à 8 km
1000 à 3000 ft
1500m à 5 km
500 à 1000 ft
800 à 1500m
200 à 500 ft
< 800m
< 200 ft
Symboles :   Orages  Brouillard  Fortes neiges  Fortes précipitations  Vent > 20 kt
SIGMETs :   Divers  Orages  Givrage  Turbulence  Onde Orograph.  Cendres Volcan.







- Altitude de l'aérodrome : 1989 ft
- Code IATA : KLV


LKKV - Karlovy Vary

DERNIER METAR :
  • 211900Z 30011KT 270V330 9999 FEW023 15/03 Q1017

METARs EXPIRÉS :
  • 211830Z 30009KT 9999 FEW023 16/04 Q1016
  • 211800Z 31010KT 9999 FEW023 16/07 Q1016
  • 211730Z 30012KT 260V340 9999 FEW023 SCT040 16/09 Q1015
  • 211700Z 29013KT 9999 FEW023 SCT040 16/10 Q1015

TAF TAF LKKV
Valide du 21 à 18h jusqu'au 23 à 00h UTC


211700Z 2118/2300 29012KT CAVOK
TEMPO 2118/2120 31016G26KT
TEMPO 2209/2220 28016G26KT 7000 SHRA SCT030TCU
PROB30
TEMPO 2212/2217 27020G34KT 4000 TSRA SCT020CB BKN030
Pas de NOTAMs connus pour ce terrain.
2 SIGMETs publiés pour la FIR Praha (LKAA) :
 
Orages en lignes de grains
LKAA SIGMET 3 VALID 211900/212100 LKPW
LKAA PRAHA FIR SQL TS OBS WI N5003 E01840 - N4905 E01756 - N4841 E01641 - N4848 E01552 - N4951 E01714 - N5003 E01840 TOP FL390 MOV NE 20KT NC=
Orages en lignes de grains
LKAA SIGMET 2 VALID 211700/211900 LKPW
LKAA PRAHA FIR SQL TS OBS WI N5010 E01746 - N4845 E01550 - N4846 E01450 - N4949 E01541 - N5024 E01652 - N5010 E01746 TOP FL390 MOV NE 20KT NC=



MET'MAP, la Météo Aéronautique d'un coup d'oeil ! - Copyright ORBIFLY Décembre 2007 - Disclaimer

ORBIFLY MET'MAP TEAM :

Programmation & Développement : Alexandra Zaïnal
Conception & Développement : Baudouin d'Aumeries
Co-Programmation & Développement : Marc-Olivier Méhu
Soutien technique & logistique : Manuel Goepfert

Contact : metmap@orbifly.com




SOURCES & CREDITS :

   NOAA